createdAt,value
2018-01-02T00:02:27.546Z,6.60
2018-01-02T00:04:56.149Z,6.60
2018-01-02T00:07:23.641Z,6.60
2018-01-02T00:09:51.085Z,6.60
2018-01-02T00:12:18.604Z,6.60
2018-01-02T00:14:46.050Z,6.60
2018-01-02T00:17:13.497Z,6.60
2018-01-02T00:19:40.954Z,6.60
2018-01-02T00:22:08.391Z,6.60
2018-01-02T00:24:37.204Z,6.50
2018-01-02T00:27:05.482Z,6.50
2018-01-02T00:29:32.953Z,6.40
2018-01-02T00:32:00.416Z,6.40
2018-01-02T00:34:28.613Z,6.40
2018-01-02T00:36:56.127Z,6.30
2018-01-02T00:39:24.892Z,6.30
2018-01-02T00:41:53.367Z,6.30
2018-01-02T00:44:25.258Z,6.30
2018-01-02T00:46:52.734Z,6.30
2018-01-02T00:49:20.168Z,6.30
2018-01-02T00:51:51.007Z,6.30
2018-01-02T00:54:19.861Z,6.30
2018-01-02T00:56:48.461Z,6.30
2018-01-02T00:59:16.327Z,6.40
2018-01-02T01:01:44.162Z,6.50
2018-01-02T01:04:12.652Z,6.50
2018-01-02T01:06:40.147Z,6.50
2018-01-02T01:09:08.003Z,6.50
2018-01-02T01:11:35.872Z,6.50
2018-01-02T01:14:04.628Z,6.50
2018-01-02T01:16:32.104Z,6.50
2018-01-02T01:18:59.594Z,6.50
2018-01-02T01:21:28.004Z,6.50
2018-01-02T01:23:56.354Z,6.40
2018-01-02T01:26:24.327Z,6.40
2018-01-02T01:28:51.816Z,6.40
2018-01-02T01:31:19.224Z,6.40
2018-01-02T01:33:48.593Z,6.40
2018-01-02T01:36:16.022Z,6.40
2018-01-02T01:38:43.481Z,6.30
2018-01-02T01:41:10.923Z,6.30
2018-01-02T01:43:38.789Z,6.30
2018-01-02T01:46:06.210Z,6.20
2018-01-02T01:48:33.714Z,6.10
2018-01-02T01:51:01.153Z,6.20
2018-01-02T01:53:28.581Z,6.10
2018-01-02T01:55:56.021Z,6.10
2018-01-02T01:58:23.883Z,6.10
2018-01-02T02:00:53.262Z,6.10
2018-01-02T02:03:20.705Z,6.10
2018-01-02T02:05:48.167Z,6.10
2018-01-02T02:08:15.618Z,6.10
2018-01-02T02:10:43.080Z,6.20
2018-01-02T02:13:10.538Z,6.20
2018-01-02T02:15:37.974Z,6.20
2018-01-02T02:18:05.431Z,6.20
2018-01-02T02:20:33.758Z,6.20
2018-01-02T02:23:01.271Z,6.10
2018-01-02T02:25:28.732Z,6.10
2018-01-02T02:27:56.206Z,6.00
2018-01-02T02:30:23.650Z,6.00
2018-01-02T02:32:51.099Z,5.90
2018-01-02T02:35:18.545Z,6.00
2018-01-02T02:37:46.846Z,6.00
2018-01-02T02:40:14.278Z,6.00
2018-01-02T02:42:41.738Z,6.00
2018-01-02T02:45:09.166Z,5.90
2018-01-02T02:47:37.034Z,6.00
2018-01-02T02:50:04.467Z,6.00
2018-01-02T02:52:31.893Z,6.00
2018-01-02T02:54:59.332Z,6.00
2018-01-02T02:57:26.827Z,6.00
2018-01-02T02:59:54.246Z,6.00
2018-01-02T03:02:23.614Z,6.10
2018-01-02T03:04:51.433Z,6.10
2018-01-02T03:07:18.870Z,6.10
2018-01-02T03:09:47.223Z,6.20
2018-01-02T03:12:15.931Z,6.10
2018-01-02T03:14:43.392Z,6.10
2018-01-02T03:17:10.816Z,6.10
2018-01-02T03:19:38.668Z,6.10
2018-01-02T03:22:08.453Z,6.10
2018-01-02T03:24:35.890Z,6.10
2018-01-02T03:27:03.341Z,6.10
2018-01-02T03:29:30.768Z,6.10
2018-01-02T03:31:58.604Z,6.00
2018-01-02T03:34:26.030Z,6.00
2018-01-02T03:36:53.460Z,6.00
2018-01-02T03:39:20.900Z,5.90
2018-01-02T03:41:48.749Z,6.00
2018-01-02T03:44:16.203Z,5.90
2018-01-02T03:46:43.637Z,5.90
2018-01-02T03:49:26.523Z,5.90
2018-01-02T03:51:55.046Z,5.90
2018-01-02T03:54:22.485Z,5.90
2018-01-02T03:56:49.932Z,5.80
2018-01-02T03:59:17.396Z,5.80
2018-01-02T04:01:46.685Z,5.70
2018-01-02T04:04:14.335Z,5.70
2018-01-02T04:06:42.158Z,5.70
2018-01-02T04:09:10.521Z,5.70
2018-01-02T04:11:38.004Z,5.70
2018-01-02T04:14:05.424Z,5.70
2018-01-02T04:16:32.872Z,5.70
2018-01-02T04:19:01.270Z,5.70
2018-01-02T04:21:28.705Z,5.70
2018-01-02T04:23:56.151Z,5.80
2018-01-02T04:26:23.592Z,5.70
2018-01-02T04:28:51.034Z,5.70
2018-01-02T04:31:18.869Z,5.70
2018-01-02T04:33:46.316Z,5.70
2018-01-02T04:36:13.753Z,5.70
2018-01-02T04:38:41.202Z,5.70
2018-01-02T04:41:08.629Z,5.60
2018-01-02T04:43:37.029Z,5.50
2018-01-02T04:46:04.467Z,5.50
2018-01-02T04:48:32.304Z,5.50
2018-01-02T04:50:59.738Z,5.50
2018-01-02T04:53:28.106Z,5.50
2018-01-02T04:55:55.564Z,5.50
2018-01-02T04:58:23.009Z,5.40
2018-01-02T05:00:50.485Z,5.40
2018-01-02T05:03:17.922Z,5.30
2018-01-02T05:05:45.379Z,5.30
2018-01-02T05:08:12.838Z,5.30
2018-01-02T05:10:42.212Z,5.30
2018-01-02T05:13:10.042Z,5.30
2018-01-02T05:15:37.486Z,5.30
2018-01-02T05:18:06.897Z,5.30
2018-01-02T05:20:34.331Z,5.40
2018-01-02T05:23:01.771Z,5.40
2018-01-02T05:25:30.139Z,5.40
2018-01-02T05:27:57.623Z,5.40
2018-01-02T05:30:25.411Z,5.50
2018-01-02T05:32:52.865Z,5.50
2018-01-02T05:35:20.294Z,5.50
2018-01-02T05:37:47.743Z,5.50
2018-01-02T05:40:15.189Z,5.60
2018-01-02T05:42:42.632Z,5.60
2018-01-02T05:45:10.543Z,5.60
2018-01-02T05:47:37.987Z,5.60
2018-01-02T05:50:06.903Z,5.60
2018-01-02T05:52:34.348Z,5.60
2018-01-02T05:55:01.804Z,5.70
2018-01-02T05:57:29.871Z,5.70
2018-01-02T05:59:57.327Z,5.80
2018-01-02T06:02:24.753Z,5.70
2018-01-02T06:04:52.202Z,5.70
2018-01-02T06:07:20.022Z,5.70
2018-01-02T06:09:48.346Z,5.70
2018-01-02T06:12:17.062Z,5.80
2018-01-02T06:14:45.011Z,5.80
2018-01-02T06:17:12.476Z,5.70
2018-01-02T06:19:39.908Z,5.70
2018-01-02T06:22:07.813Z,5.60
2018-01-02T06:24:35.234Z,5.60
2018-01-02T06:27:03.076Z,5.60
2018-01-02T06:29:30.530Z,5.60
2018-01-02T06:31:57.959Z,5.60
2018-01-02T06:34:25.426Z,5.70
2018-01-02T06:36:52.865Z,5.70
2018-01-02T06:39:20.304Z,5.70
2018-01-02T06:41:47.758Z,5.70
2018-01-02T06:44:15.185Z,5.70
2018-01-02T06:46:43.073Z,5.70
2018-01-02T06:49:11.872Z,5.70
2018-01-02T06:51:41.699Z,5.70
2018-01-02T06:57:00.508Z,5.70
2018-01-02T06:59:28.443Z,5.70
2018-01-02T07:01:55.870Z,5.70
2018-01-02T07:04:23.694Z,5.80
2018-01-02T07:06:51.149Z,5.80
2018-01-02T07:09:18.586Z,5.80
2018-01-02T07:11:46.048Z,5.70
2018-01-02T07:14:13.492Z,5.80
2018-01-02T07:16:45.818Z,5.70
2018-01-02T07:19:14.278Z,5.70
2018-01-02T07:21:41.734Z,5.70
2018-01-02T07:24:09.363Z,5.70
2018-01-02T07:29:19.281Z,5.70
2018-01-02T07:31:46.833Z,5.70
2018-01-02T07:34:15.242Z,5.70
2018-01-02T07:36:43.062Z,5.70
2018-01-02T07:41:51.618Z,5.70
2018-01-02T07:44:19.978Z,5.70
2018-01-02T07:46:47.823Z,5.70
2018-01-02T07:49:15.280Z,5.70
2018-01-02T07:51:42.702Z,5.60
2018-01-02T07:54:10.153Z,5.70
2018-01-02T07:56:37.990Z,5.70
2018-01-02T07:59:05.447Z,5.70
2018-01-02T08:01:35.521Z,5.70
2018-01-02T08:04:03.394Z,5.70
2018-01-02T08:06:30.825Z,5.70
2018-01-02T08:08:59.201Z,5.80
2018-01-02T08:11:26.653Z,5.80
2018-01-02T08:13:54.790Z,5.90
2018-01-02T08:16:22.235Z,5.90
2018-01-02T08:18:49.720Z,5.90
2018-01-02T08:21:18.148Z,5.90
2018-01-02T08:23:46.458Z,6.00
2018-01-02T08:26:13.897Z,5.90
2018-01-02T08:28:43.306Z,5.90
2018-01-02T08:31:10.754Z,5.90
2018-01-02T08:33:38.218Z,5.90
2018-01-02T08:36:05.668Z,5.80
2018-01-02T08:38:33.360Z,5.90
2018-01-02T08:41:00.796Z,5.90
2018-01-02T08:43:28.245Z,5.80
2018-01-02T08:45:55.712Z,5.80
2018-01-02T08:48:25.118Z,5.80
2018-01-02T08:50:53.482Z,5.90
2018-01-02T08:53:20.930Z,5.90
2018-01-02T08:55:48.380Z,5.90
2018-01-02T08:58:15.820Z,5.90
2018-01-02T09:00:43.249Z,5.90
2018-01-02T09:03:10.706Z,5.90
2018-01-02T09:05:38.143Z,6.00
2018-01-02T09:08:05.598Z,5.90
2018-01-02T09:10:33.921Z,6.00
2018-01-02T09:13:06.944Z,6.00
2018-01-02T09:15:35.532Z,6.00
2018-01-02T09:18:04.203Z,6.10
2018-01-02T09:20:33.576Z,6.10
2018-01-02T09:23:01.411Z,6.10
2018-01-02T09:25:28.842Z,6.20
2018-01-02T09:27:56.302Z,6.10
2018-01-02T09:30:23.739Z,6.10
2018-01-02T09:32:51.226Z,6.20
2018-01-02T09:35:18.666Z,6.20
2018-01-02T09:37:50.123Z,6.20
2018-01-02T09:40:17.585Z,6.20
2018-01-02T09:42:45.043Z,6.20
2018-01-02T09:45:12.505Z,6.20
2018-01-02T09:47:40.865Z,6.20
2018-01-02T09:50:08.333Z,6.20
2018-01-02T09:52:35.784Z,6.30
2018-01-02T09:55:03.220Z,6.40
2018-01-02T09:57:30.658Z,6.40
2018-01-02T09:59:58.097Z,6.30
2018-01-02T10:02:25.930Z,6.30
2018-01-02T10:04:53.380Z,6.30
2018-01-02T10:07:20.823Z,6.40
2018-01-02T10:09:48.274Z,6.40
2018-01-02T10:12:15.730Z,6.40
2018-01-02T10:14:43.222Z,6.50
2018-01-02T10:17:10.674Z,6.50
2018-01-02T10:19:41.083Z,6.50
2018-01-02T10:22:09.512Z,6.60
2018-01-02T10:24:36.942Z,6.70
2018-01-02T10:27:04.421Z,6.80
2018-01-02T10:29:31.853Z,6.80
2018-01-02T10:32:01.236Z,6.80
2018-01-02T10:34:28.685Z,6.80
2018-01-02T10:36:56.148Z,6.70
2018-01-02T10:39:23.580Z,6.70
2018-01-02T10:41:51.026Z,6.80
2018-01-02T10:44:20.800Z,6.90
2018-01-02T10:46:48.267Z,6.90
2018-01-02T10:49:15.702Z,6.90
2018-01-02T10:51:43.142Z,6.80
2018-01-02T10:54:11.514Z,6.90
2018-01-02T10:56:38.963Z,7.00
2018-01-02T11:41:27.631Z,6.90
2018-01-02T11:43:55.982Z,7.60
2018-01-02T11:46:23.437Z,7.50
2018-01-02T11:48:51.822Z,7.40
2018-01-02T11:51:19.257Z,7.40
2018-01-02T11:53:46.694Z,7.30
2018-01-02T11:56:14.610Z,7.30
2018-01-02T11:58:42.046Z,7.30
2018-01-02T12:01:09.514Z,7.20
2018-01-02T12:03:37.881Z,7.20
2018-01-02T12:06:05.322Z,7.20
2018-01-02T12:08:32.770Z,7.20
2018-01-02T12:11:01.536Z,7.20
2018-01-02T12:13:28.981Z,7.20
2018-01-02T12:15:56.438Z,7.20
2018-01-02T12:18:23.866Z,7.20
2018-01-02T12:20:51.325Z,7.30
2018-01-02T12:23:18.757Z,7.40
2018-01-02T12:25:47.138Z,7.40
2018-01-02T12:28:14.582Z,7.30
2018-01-02T12:30:42.408Z,7.30
2018-01-02T12:33:09.843Z,7.30
2018-01-02T12:35:37.278Z,7.30
2018-01-02T12:38:04.730Z,7.10
2018-01-02T12:40:32.162Z,7.10
2018-01-02T12:43:00.007Z,7.00
2018-01-02T12:45:27.456Z,7.00
2018-01-02T12:47:54.880Z,6.90
2018-01-02T12:50:22.317Z,6.90
2018-01-02T12:52:49.758Z,6.90
2018-01-02T12:55:17.698Z,7.00
2018-01-02T12:57:45.128Z,7.00
2018-01-02T13:00:14.257Z,7.00
2018-01-02T13:02:42.185Z,7.00
2018-01-02T13:05:09.615Z,7.00
2018-01-02T13:07:37.459Z,6.90
2018-01-02T13:10:05.303Z,6.80
2018-01-02T13:12:32.768Z,6.80
2018-01-02T13:15:00.198Z,6.80
2018-01-02T13:17:27.651Z,6.70
2018-01-02T13:19:55.084Z,6.60
2018-01-02T13:22:22.536Z,6.60
2018-01-02T13:24:50.355Z,6.70
2018-01-02T13:27:17.790Z,6.70
2018-01-02T13:29:45.230Z,6.70
2018-01-02T13:32:12.672Z,6.70
2018-01-02T13:34:40.503Z,6.70
2018-01-02T13:37:07.930Z,6.70
2018-01-02T13:39:35.359Z,6.70
2018-01-02T13:42:03.722Z,6.80
2018-01-02T13:44:31.615Z,6.80
2018-01-02T13:46:59.053Z,6.80
2018-01-02T13:49:27.605Z,6.90
2018-01-02T13:51:58.124Z,7.00
2018-01-02T13:54:26.462Z,7.00
2018-01-02T13:56:54.425Z,7.00
2018-01-02T13:59:21.863Z,7.00
2018-01-02T14:01:49.375Z,7.00
2018-01-02T14:04:16.809Z,7.00
2018-01-02T14:06:45.174Z,7.10
2018-01-02T14:09:20.339Z,7.10
2018-01-02T14:11:48.664Z,7.20
2018-01-02T14:14:16.562Z,7.30
2018-01-02T14:16:45.937Z,7.30
2018-01-02T14:19:15.093Z,7.30
2018-01-02T14:21:42.552Z,7.30
2018-01-02T14:24:10.042Z,7.20
2018-01-02T14:26:37.883Z,7.10
2018-01-02T14:29:05.317Z,7.10
2018-01-02T14:31:33.677Z,7.10
2018-01-02T14:34:01.116Z,7.10
2018-01-02T14:36:29.254Z,7.00
2018-01-02T14:38:56.962Z,7.00
2018-01-02T14:41:24.436Z,7.00
2018-01-02T14:43:51.866Z,6.90
2018-01-02T14:46:20.316Z,7.00
2018-01-02T14:48:47.785Z,7.00
2018-01-02T14:51:15.237Z,6.90
2018-01-02T14:53:42.692Z,7.00
2018-01-02T14:56:10.146Z,7.00
2018-01-02T14:58:37.611Z,7.00
2018-01-02T15:01:05.064Z,7.00
2018-01-02T15:03:32.555Z,6.90
2018-01-02T15:06:00.034Z,6.90
2018-01-02T15:08:27.499Z,6.90
2018-01-02T15:10:54.944Z,6.90
2018-01-02T15:13:22.392Z,6.90
2018-01-02T15:15:50.795Z,6.90
2018-01-02T15:18:18.337Z,6.90
2018-01-02T15:20:45.785Z,6.90
2018-01-02T15:23:13.273Z,6.80
2018-01-02T15:25:43.304Z,6.80
2018-01-02T15:28:10.791Z,6.80
2018-01-02T15:30:38.247Z,6.70
2018-01-02T15:33:06.105Z,6.70
2018-01-02T15:35:33.566Z,6.80
2018-01-02T15:38:03.930Z,6.60
2018-01-02T15:40:31.477Z,6.60
2018-01-02T15:43:01.918Z,6.60
2018-01-02T15:45:29.374Z,6.60
2018-01-02T15:47:56.902Z,6.60
2018-01-02T15:50:24.758Z,6.30
2018-01-02T15:52:52.528Z,6.30
2018-01-02T15:55:20.932Z,6.20
2018-01-02T15:57:48.418Z,6.20
2018-01-02T16:00:15.917Z,6.10
2018-01-02T16:02:43.395Z,6.10
2018-01-02T16:05:10.848Z,6.10
2018-01-02T16:07:38.918Z,6.10
2018-01-02T16:10:06.431Z,6.20
2018-01-02T16:12:34.810Z,6.20
2018-01-02T16:15:02.248Z,6.20
2018-01-02T16:17:30.652Z,6.20
2018-01-02T16:19:58.694Z,6.20
2018-01-02T16:22:26.184Z,6.20
2018-01-02T16:24:54.428Z,6.20
2018-01-02T16:27:22.572Z,6.20
2018-01-02T16:29:50.025Z,6.20
2018-01-02T16:32:17.897Z,6.00
2018-01-02T16:34:46.620Z,6.00
2018-01-02T16:37:14.477Z,6.00
2018-01-02T16:39:42.625Z,6.10
2018-01-02T16:42:10.985Z,6.00
2018-01-02T16:44:38.838Z,6.00
2018-01-02T16:47:06.310Z,6.10
2018-01-02T16:49:35.077Z,6.10
2018-01-02T16:52:02.563Z,6.10
2018-01-02T16:54:30.029Z,6.00
2018-01-02T16:56:58.782Z,6.00
2018-01-02T16:59:26.247Z,6.00
2018-01-02T17:01:54.914Z,6.00
2018-01-02T17:04:22.409Z,5.90
2018-01-02T17:06:49.854Z,6.00
2018-01-02T17:09:17.716Z,5.90
2018-01-02T17:11:45.576Z,5.90
2018-01-02T17:14:13.034Z,5.90
2018-01-02T17:16:41.417Z,5.90
2018-01-02T17:19:08.858Z,5.90
2018-01-02T17:21:36.350Z,5.90
2018-01-02T17:24:04.589Z,5.90
2018-01-02T17:26:32.113Z,5.90
2018-01-02T17:28:59.567Z,5.90
2018-01-02T17:31:27.052Z,6.00
2018-01-02T17:33:54.509Z,6.00
2018-01-02T17:36:22.035Z,6.00
2018-01-02T17:38:49.487Z,5.80
2018-01-02T17:41:17.362Z,5.80
2018-01-02T17:43:45.739Z,5.80
2018-01-02T17:46:14.710Z,5.80
2018-01-02T17:48:42.545Z,5.80
2018-01-02T17:51:10.007Z,5.80
2018-01-02T17:53:37.499Z,5.80
2018-01-02T17:56:05.333Z,5.80
2018-01-02T17:58:32.823Z,5.80
2018-01-02T18:01:01.033Z,5.80
2018-01-02T18:03:28.515Z,5.70
2018-01-02T18:05:55.974Z,5.70
2018-01-02T18:08:23.440Z,5.80
2018-01-02T18:10:51.362Z,5.70
2018-01-02T18:13:18.823Z,5.70
2018-01-02T18:15:46.398Z,5.70
2018-01-02T18:18:13.878Z,5.70
2018-01-02T18:20:41.323Z,6.00
2018-01-02T18:23:10.441Z,6.00
2018-01-02T18:25:38.289Z,5.90
2018-01-02T18:28:05.839Z,5.90
2018-01-02T18:30:33.300Z,5.80
2018-01-02T18:33:02.652Z,5.90
2018-01-02T18:35:31.062Z,5.90
2018-01-02T18:37:59.451Z,5.90
2018-01-02T18:40:26.910Z,5.90
2018-01-02T18:42:54.864Z,5.90
2018-01-02T18:45:24.499Z,5.90
2018-01-02T18:47:52.017Z,6.10
2018-01-02T18:50:20.205Z,6.10
2018-01-02T18:52:47.682Z,6.10
2018-01-02T18:55:15.166Z,6.10
2018-01-02T18:57:43.391Z,6.20
2018-01-02T19:00:10.872Z,6.20
2018-01-02T19:02:38.313Z,6.20
2018-01-02T19:05:07.737Z,6.20
2018-01-02T19:07:35.182Z,6.20
2018-01-02T19:10:03.021Z,6.20
2018-01-02T19:12:30.484Z,6.20
2018-01-02T19:14:57.957Z,6.40
2018-01-02T19:17:25.447Z,6.40
2018-01-02T19:19:52.899Z,6.40
2018-01-02T19:22:20.342Z,6.40
2018-01-02T19:24:47.801Z,6.40
2018-01-02T19:27:15.287Z,6.40
2018-01-02T19:29:43.139Z,6.40
2018-01-02T19:32:12.549Z,6.30
2018-01-02T19:34:40.023Z,6.40
2018-01-02T19:37:07.988Z,6.40
2018-01-02T19:39:36.990Z,6.30
2018-01-02T19:42:07.062Z,6.30
2018-01-02T19:44:34.564Z,6.30
2018-01-02T19:47:03.615Z,6.30
2018-01-02T19:49:31.064Z,6.30
2018-01-02T19:51:58.526Z,6.30
2018-01-02T19:54:26.011Z,6.30
2018-01-02T19:56:53.456Z,6.30
2018-01-02T19:59:20.929Z,6.30
2018-01-02T20:01:48.818Z,6.30
2018-01-02T20:04:16.331Z,6.30
2018-01-02T20:06:45.750Z,6.20
2018-01-02T20:09:13.633Z,6.10
2018-01-02T20:11:42.410Z,6.00
2018-01-02T20:14:10.628Z,6.00
2018-01-02T20:16:39.015Z,6.00
2018-01-02T20:19:06.910Z,5.90
2018-01-02T20:21:34.629Z,5.80
2018-01-02T20:24:04.076Z,5.80
2018-01-02T20:26:31.567Z,5.70
2018-01-02T20:28:59.452Z,5.70
2018-01-02T20:31:28.154Z,5.80
2018-01-02T20:33:55.631Z,5.80
2018-01-02T20:36:23.761Z,5.70
2018-01-02T20:38:52.338Z,5.70
2018-01-02T20:41:20.703Z,5.70
2018-01-02T20:43:48.541Z,5.70
2018-01-02T20:46:17.110Z,5.70
2018-01-02T20:48:44.568Z,5.70
2018-01-02T20:51:11.992Z,5.80
2018-01-02T20:53:39.986Z,5.70
2018-01-02T20:56:07.955Z,5.70
2018-01-02T20:58:35.385Z,5.80
2018-01-02T21:01:02.842Z,5.70
2018-01-02T21:03:30.307Z,5.80
2018-01-02T21:05:57.765Z,5.70
2018-01-02T21:08:25.567Z,5.70
2018-01-02T21:10:53.708Z,5.70
2018-01-02T21:13:21.140Z,5.60
2018-01-02T21:15:48.622Z,5.50
2018-01-02T21:18:16.064Z,5.70
2018-01-02T21:20:43.507Z,5.70
2018-01-02T21:23:11.408Z,5.70
2018-01-02T21:25:39.710Z,5.70
2018-01-02T21:28:09.107Z,5.70
2018-01-02T21:30:37.242Z,5.80
2018-01-02T21:33:06.604Z,5.80
2018-01-02T21:35:34.314Z,5.80
2018-01-02T21:38:01.754Z,5.90
2018-01-02T21:40:29.193Z,5.90
2018-01-02T21:42:57.017Z,5.70
2018-01-02T21:45:24.495Z,5.70
2018-01-02T21:47:52.133Z,5.60
2018-01-02T21:50:19.569Z,5.60
2018-01-02T21:52:47.344Z,5.50
2018-01-02T21:55:14.786Z,5.50
2018-01-02T21:57:46.178Z,5.50
2018-01-02T22:00:13.621Z,5.60
2018-01-02T22:02:41.058Z,5.50
2018-01-02T22:05:08.505Z,5.50
2018-01-02T22:07:37.367Z,5.50
2018-01-02T22:10:06.737Z,5.40
2018-01-02T22:15:08.153Z,5.20
2018-01-02T22:17:35.593Z,5.20
2018-01-02T22:20:03.437Z,5.10
2018-01-02T22:22:30.865Z,5.10
2018-01-02T22:24:58.310Z,5.10
2018-01-02T22:27:25.742Z,5.20
2018-01-02T22:29:53.660Z,5.20
2018-01-02T22:32:21.134Z,5.20
2018-01-02T22:34:50.819Z,5.10
2018-01-02T22:37:18.370Z,5.20
2018-01-02T22:39:45.858Z,5.20
2018-01-02T22:42:13.402Z,5.20
2018-01-02T22:44:40.891Z,5.20
2018-01-02T22:47:08.377Z,5.20
2018-01-02T22:49:37.066Z,5.30
2018-01-02T22:52:06.378Z,5.20
2018-01-02T22:54:34.410Z,5.20
2018-01-02T22:57:01.915Z,5.20
2018-01-02T22:59:29.405Z,5.20
2018-01-02T23:01:57.042Z,5.20
2018-01-02T23:04:24.731Z,5.20
2018-01-02T23:06:52.210Z,5.20
2018-01-02T23:09:22.460Z,5.20
2018-01-02T23:11:51.392Z,5.20
2018-01-02T23:14:20.013Z,5.20
2018-01-02T23:16:47.601Z,5.20
2018-01-02T23:19:16.417Z,5.20
2018-01-02T23:21:44.137Z,5.20
2018-01-02T23:24:12.053Z,5.20
2018-01-02T23:26:40.746Z,5.30
2018-01-02T23:29:11.490Z,5.30
2018-01-02T23:31:39.052Z,5.20
2018-01-02T23:34:08.186Z,5.30
2018-01-02T23:36:35.715Z,5.30
2018-01-02T23:39:06.124Z,5.30
2018-01-02T23:41:33.631Z,5.30
2018-01-02T23:44:02.232Z,5.20
2018-01-02T23:46:30.338Z,5.20
2018-01-02T23:49:00.726Z,5.20
2018-01-02T23:51:29.888Z,5.20
2018-01-02T23:53:58.227Z,5.20
2018-01-02T23:56:26.628Z,5.20
2018-01-02T23:58:54.231Z,5.20
